sensor_id;sensor_type;location;lat;lon;timestamp;temperature;humidity
15072;DHT22;7635;56.696;13.002;2023-08-17T00:02:25;15.10;99.90
15072;DHT22;7635;56.696;13.002;2023-08-17T00:04:51;15.10;99.90
15072;DHT22;7635;56.696;13.002;2023-08-17T00:07:18;15.00;99.90
15072;DHT22;7635;56.696;13.002;2023-08-17T00:09:45;14.90;99.90
15072;DHT22;7635;56.696;13.002;2023-08-17T00:12:13;14.80;99.90
15072;DHT22;7635;56.696;13.002;2023-08-17T00:14:39;14.70;99.90
15072;DHT22;7635;56.696;13.002;2023-08-17T00:17:07;14.70;99.90
15072;DHT22;7635;56.696;13.002;2023-08-17T00:19:34;14.60;99.90
15072;DHT22;7635;56.696;13.002;2023-08-17T00:22:01;14.60;99.90
15072;DHT22;7635;56.696;13.002;2023-08-17T00:24:27;14.60;99.90
15072;DHT22;7635;56.696;13.002;2023-08-17T00:26:54;14.50;99.90
15072;DHT22;7635;56.696;13.002;2023-08-17T00:29:21;14.50;99.90
15072;DHT22;7635;56.696;13.002;2023-08-17T00:31:47;14.40;99.90
15072;DHT22;7635;56.696;13.002;2023-08-17T00:34:16;14.30;99.90
15072;DHT22;7635;56.696;13.002;2023-08-17T00:36:43;14.30;99.90
15072;DHT22;7635;56.696;13.002;2023-08-17T00:39:09;14.20;99.90
15072;DHT22;7635;56.696;13.002;2023-08-17T00:41:36;14.20;99.90
15072;DHT22;7635;56.696;13.002;2023-08-17T00:44:03;14.10;99.90
15072;DHT22;7635;56.696;13.002;2023-08-17T00:46:30;14.10;99.90
15072;DHT22;7635;56.696;13.002;2023-08-17T00:48:57;14.00;99.90
15072;DHT22;7635;56.696;13.002;2023-08-17T00:51:26;14.00;99.90
15072;DHT22;7635;56.696;13.002;2023-08-17T00:53:57;14.00;99.90
15072;DHT22;7635;56.696;13.002;2023-08-17T00:56:24;14.00;99.90
15072;DHT22;7635;56.696;13.002;2023-08-17T00:58:51;14.00;99.90
15072;DHT22;7635;56.696;13.002;2023-08-17T01:01:19;14.10;99.90
15072;DHT22;7635;56.696;13.002;2023-08-17T01:03:45;14.10;99.90
15072;DHT22;7635;56.696;13.002;2023-08-17T01:06:12;14.10;99.90
15072;DHT22;7635;56.696;13.002;2023-08-17T01:08:41;14.20;99.90
15072;DHT22;7635;56.696;13.002;2023-08-17T01:11:18;14.20;99.90
15072;DHT22;7635;56.696;13.002;2023-08-17T01:13:51;14.30;99.90
15072;DHT22;7635;56.696;13.002;2023-08-17T01:16:24;14.30;99.90
15072;DHT22;7635;56.696;13.002;2023-08-17T01:18:51;14.30;99.90
15072;DHT22;7635;56.696;13.002;2023-08-17T01:21:21;14.40;99.90
15072;DHT22;7635;56.696;13.002;2023-08-17T01:23:50;14.40;99.90
15072;DHT22;7635;56.696;13.002;2023-08-17T01:26:17;14.50;99.90
15072;DHT22;7635;56.696;13.002;2023-08-17T01:28:44;14.40;99.90
15072;DHT22;7635;56.696;13.002;2023-08-17T01:31:17;14.50;99.90
15072;DHT22;7635;56.696;13.002;2023-08-17T01:33:49;14.50;99.90
15072;DHT22;7635;56.696;13.002;2023-08-17T01:36:20;14.60;99.90
15072;DHT22;7635;56.696;13.002;2023-08-17T01:38:51;14.60;99.90
15072;DHT22;7635;56.696;13.002;2023-08-17T01:41:20;14.60;99.90
15072;DHT22;7635;56.696;13.002;2023-08-17T01:43:49;14.60;99.90
15072;DHT22;7635;56.696;13.002;2023-08-17T01:46:16;14.60;99.90
15072;DHT22;7635;56.696;13.002;2023-08-17T01:48:44;14.70;99.90
15072;DHT22;7635;56.696;13.002;2023-08-17T01:51:13;14.70;99.90
15072;DHT22;7635;56.696;13.002;2023-08-17T01:53:40;14.60;99.90
15072;DHT22;7635;56.696;13.002;2023-08-17T01:56:08;14.60;99.90
15072;DHT22;7635;56.696;13.002;2023-08-17T01:58:35;14.50;99.90
15072;DHT22;7635;56.696;13.002;2023-08-17T02:01:01;14.40;99.90
15072;DHT22;7635;56.696;13.002;2023-08-17T02:03:28;14.40;99.90
15072;DHT22;7635;56.696;13.002;2023-08-17T02:05:56;14.40;99.90
15072;DHT22;7635;56.696;13.002;2023-08-17T02:08:23;14.40;99.90
15072;DHT22;7635;56.696;13.002;2023-08-17T02:10:49;14.40;99.90
15072;DHT22;7635;56.696;13.002;2023-08-17T02:13:18;14.40;99.90
15072;DHT22;7635;56.696;13.002;2023-08-17T02:15:44;14.50;99.90
15072;DHT22;7635;56.696;13.002;2023-08-17T02:18:12;14.40;99.90
15072;DHT22;7635;56.696;13.002;2023-08-17T02:20:39;14.50;99.90
15072;DHT22;7635;56.696;13.002;2023-08-17T02:23:05;14.40;99.90
15072;DHT22;7635;56.696;13.002;2023-08-17T02:25:32;14.40;99.90
15072;DHT22;7635;56.696;13.002;2023-08-17T02:28:01;14.40;99.90
15072;DHT22;7635;56.696;13.002;2023-08-17T02:30:29;14.40;99.90
15072;DHT22;7635;56.696;13.002;2023-08-17T02:32:55;14.40;99.90
15072;DHT22;7635;56.696;13.002;2023-08-17T02:35:23;14.40;99.90
15072;DHT22;7635;56.696;13.002;2023-08-17T02:37:50;14.30;99.90
15072;DHT22;7635;56.696;13.002;2023-08-17T02:40:17;14.40;99.90
15072;DHT22;7635;56.696;13.002;2023-08-17T02:42:43;14.40;99.90
15072;DHT22;7635;56.696;13.002;2023-08-17T02:45:10;14.40;99.90
15072;DHT22;7635;56.696;13.002;2023-08-17T02:47:38;14.40;99.90
15072;DHT22;7635;56.696;13.002;2023-08-17T02:50:06;14.40;99.90
15072;DHT22;7635;56.696;13.002;2023-08-17T02:52:33;14.40;99.90
15072;DHT22;7635;56.696;13.002;2023-08-17T02:54:59;14.40;99.90
15072;DHT22;7635;56.696;13.002;2023-08-17T02:57:26;14.40;99.90
15072;DHT22;7635;56.696;13.002;2023-08-17T02:59:53;14.30;99.90
15072;DHT22;7635;56.696;13.002;2023-08-17T03:02:19;14.30;99.90
15072;DHT22;7635;56.696;13.002;2023-08-17T03:04:47;14.30;99.90
15072;DHT22;7635;56.696;13.002;2023-08-17T03:07:14;14.30;99.90
15072;DHT22;7635;56.696;13.002;2023-08-17T03:09:41;14.20;99.90
15072;DHT22;7635;56.696;13.002;2023-08-17T03:12:07;14.20;99.90
15072;DHT22;7635;56.696;13.002;2023-08-17T03:14:34;14.20;99.90
15072;DHT22;7635;56.696;13.002;2023-08-17T03:17:01;14.20;99.90
15072;DHT22;7635;56.696;13.002;2023-08-17T03:19:27;14.20;99.90
15072;DHT22;7635;56.696;13.002;2023-08-17T03:21:55;14.20;99.90
15072;DHT22;7635;56.696;13.002;2023-08-17T03:24:22;14.20;99.90
15072;DHT22;7635;56.696;13.002;2023-08-17T03:26:49;14.20;99.90
15072;DHT22;7635;56.696;13.002;2023-08-17T03:29:15;14.20;99.90
15072;DHT22;7635;56.696;13.002;2023-08-17T03:31:42;14.20;99.90
15072;DHT22;7635;56.696;13.002;2023-08-17T03:34:09;14.20;99.90
15072;DHT22;7635;56.696;13.002;2023-08-17T03:36:35;14.10;99.90
15072;DHT22;7635;56.696;13.002;2023-08-17T03:39:04;14.10;99.90
15072;DHT22;7635;56.696;13.002;2023-08-17T03:41:30;14.10;99.90
15072;DHT22;7635;56.696;13.002;2023-08-17T03:43:57;14.00;99.90
15072;DHT22;7635;56.696;13.002;2023-08-17T03:46:24;13.90;99.90
15072;DHT22;7635;56.696;13.002;2023-08-17T03:48:50;13.90;99.90
15072;DHT22;7635;56.696;13.002;2023-08-17T03:51:17;13.90;99.90
15072;DHT22;7635;56.696;13.002;2023-08-17T03:53:44;13.80;99.90
15072;DHT22;7635;56.696;13.002;2023-08-17T03:56:12;13.80;99.90
15072;DHT22;7635;56.696;13.002;2023-08-17T03:58:40;13.70;99.90
15072;DHT22;7635;56.696;13.002;2023-08-17T04:01:09;13.70;99.90
15072;DHT22;7635;56.696;13.002;2023-08-17T04:03:36;13.70;99.90
15072;DHT22;7635;56.696;13.002;2023-08-17T04:06:07;13.60;99.90
15072;DHT22;7635;56.696;13.002;2023-08-17T04:08:35;13.60;99.90
15072;DHT22;7635;56.696;13.002;2023-08-17T04:11:02;13.60;99.90
15072;DHT22;7635;56.696;13.002;2023-08-17T04:13:30;13.60;99.90
15072;DHT22;7635;56.696;13.002;2023-08-17T04:15:57;13.70;99.90
15072;DHT22;7635;56.696;13.002;2023-08-17T04:18:24;13.70;99.90
15072;DHT22;7635;56.696;13.002;2023-08-17T04:20:50;13.70;99.90
15072;DHT22;7635;56.696;13.002;2023-08-17T04:23:17;13.70;99.90
15072;DHT22;7635;56.696;13.002;2023-08-17T04:25:44;13.70;99.90
15072;DHT22;7635;56.696;13.002;2023-08-17T04:28:11;13.80;99.90
15072;DHT22;7635;56.696;13.002;2023-08-17T04:30:39;13.80;99.90
15072;DHT22;7635;56.696;13.002;2023-08-17T04:33:05;13.90;99.90
15072;DHT22;7635;56.696;13.002;2023-08-17T04:35:33;14.00;99.90
15072;DHT22;7635;56.696;13.002;2023-08-17T04:38:00;14.00;99.90
15072;DHT22;7635;56.696;13.002;2023-08-17T04:40:26;14.10;99.90
15072;DHT22;7635;56.696;13.002;2023-08-17T04:42:53;14.20;99.90
15072;DHT22;7635;56.696;13.002;2023-08-17T04:45:20;14.30;99.90
15072;DHT22;7635;56.696;13.002;2023-08-17T04:47:48;14.30;99.90
15072;DHT22;7635;56.696;13.002;2023-08-17T04:50:15;14.30;99.90
15072;DHT22;7635;56.696;13.002;2023-08-17T04:52:42;14.40;99.90
15072;DHT22;7635;56.696;13.002;2023-08-17T04:55:09;14.40;99.90
15072;DHT22;7635;56.696;13.002;2023-08-17T04:57:36;14.40;99.90
15072;DHT22;7635;56.696;13.002;2023-08-17T05:00:03;14.40;99.90
15072;DHT22;7635;56.696;13.002;2023-08-17T05:02:34;14.50;99.90
15072;DHT22;7635;56.696;13.002;2023-08-17T05:05:04;14.60;99.90
15072;DHT22;7635;56.696;13.002;2023-08-17T05:07:31;14.60;99.90
15072;DHT22;7635;56.696;13.002;2023-08-17T05:09:58;14.70;99.90
15072;DHT22;7635;56.696;13.002;2023-08-17T05:12:24;14.80;99.90
15072;DHT22;7635;56.696;13.002;2023-08-17T05:14:51;14.80;99.90
15072;DHT22;7635;56.696;13.002;2023-08-17T05:17:18;14.90;99.90
15072;DHT22;7635;56.696;13.002;2023-08-17T05:19:44;14.90;99.90
15072;DHT22;7635;56.696;13.002;2023-08-17T05:22:14;15.00;99.90
15072;DHT22;7635;56.696;13.002;2023-08-17T05:24:41;15.10;99.90
15072;DHT22;7635;56.696;13.002;2023-08-17T05:27:08;15.10;99.90
15072;DHT22;7635;56.696;13.002;2023-08-17T05:29:34;15.10;99.90
15072;DHT22;7635;56.696;13.002;2023-08-17T05:32:01;15.20;99.90
15072;DHT22;7635;56.696;13.002;2023-08-17T05:34:28;15.20;99.90
15072;DHT22;7635;56.696;13.002;2023-08-17T05:36:55;15.20;99.90
15072;DHT22;7635;56.696;13.002;2023-08-17T05:39:24;15.30;99.90
15072;DHT22;7635;56.696;13.002;2023-08-17T05:41:51;15.40;99.90
15072;DHT22;7635;56.696;13.002;2023-08-17T05:44:17;15.40;99.90
15072;DHT22;7635;56.696;13.002;2023-08-17T05:46:44;15.50;99.90
15072;DHT22;7635;56.696;13.002;2023-08-17T05:49:11;15.50;99.90
15072;DHT22;7635;56.696;13.002;2023-08-17T05:51:37;15.60;99.90
15072;DHT22;7635;56.696;13.002;2023-08-17T05:54:04;15.70;99.90
15072;DHT22;7635;56.696;13.002;2023-08-17T05:56:32;15.80;99.90
15072;DHT22;7635;56.696;13.002;2023-08-17T05:58:59;15.90;99.90
15072;DHT22;7635;56.696;13.002;2023-08-17T06:01:26;15.90;99.90
15072;DHT22;7635;56.696;13.002;2023-08-17T06:03:52;15.90;99.90
15072;DHT22;7635;56.696;13.002;2023-08-17T06:06:18;16.00;99.90
15072;DHT22;7635;56.696;13.002;2023-08-17T06:08:45;16.00;99.90
15072;DHT22;7635;56.696;13.002;2023-08-17T06:11:12;16.00;99.90
15072;DHT22;7635;56.696;13.002;2023-08-17T06:13:40;16.00;99.90
15072;DHT22;7635;56.696;13.002;2023-08-17T06:16:06;16.10;99.90
15072;DHT22;7635;56.696;13.002;2023-08-17T06:18:33;16.00;99.90
15072;DHT22;7635;56.696;13.002;2023-08-17T06:21:00;16.10;99.90
15072;DHT22;7635;56.696;13.002;2023-08-17T06:23:27;16.10;99.90
15072;DHT22;7635;56.696;13.002;2023-08-17T06:25:56;16.10;99.90
15072;DHT22;7635;56.696;13.002;2023-08-17T06:28:23;16.10;99.90
15072;DHT22;7635;56.696;13.002;2023-08-17T06:30:53;16.10;99.90
15072;DHT22;7635;56.696;13.002;2023-08-17T06:33:19;16.10;99.90
15072;DHT22;7635;56.696;13.002;2023-08-17T06:35:46;16.10;99.90
15072;DHT22;7635;56.696;13.002;2023-08-17T06:38:13;16.10;99.90
15072;DHT22;7635;56.696;13.002;2023-08-17T06:40:40;16.10;99.90
15072;DHT22;7635;56.696;13.002;2023-08-17T06:43:07;16.20;99.90
15072;DHT22;7635;56.696;13.002;2023-08-17T06:45:34;16.30;99.90
15072;DHT22;7635;56.696;13.002;2023-08-17T06:48:02;16.30;99.90
15072;DHT22;7635;56.696;13.002;2023-08-17T06:50:29;16.40;99.90
15072;DHT22;7635;56.696;13.002;2023-08-17T06:52:56;16.50;99.90
15072;DHT22;7635;56.696;13.002;2023-08-17T06:55:23;16.60;99.90
15072;DHT22;7635;56.696;13.002;2023-08-17T06:57:49;16.60;99.90
15072;DHT22;7635;56.696;13.002;2023-08-17T07:00:17;16.70;99.90
15072;DHT22;7635;56.696;13.002;2023-08-17T07:02:45;16.80;99.90
15072;DHT22;7635;56.696;13.002;2023-08-17T07:05:13;16.80;99.90
15072;DHT22;7635;56.696;13.002;2023-08-17T07:07:40;16.80;99.90
15072;DHT22;7635;56.696;13.002;2023-08-17T07:10:08;16.90;99.90
15072;DHT22;7635;56.696;13.002;2023-08-17T07:12:35;17.00;99.90
15072;DHT22;7635;56.696;13.002;2023-08-17T07:15:02;17.00;99.90
15072;DHT22;7635;56.696;13.002;2023-08-17T07:17:30;17.00;99.90
15072;DHT22;7635;56.696;13.002;2023-08-17T07:19:56;17.00;99.90
15072;DHT22;7635;56.696;13.002;2023-08-17T07:22:24;17.00;99.90
15072;DHT22;7635;56.696;13.002;2023-08-17T07:24:51;17.00;99.90
15072;DHT22;7635;56.696;13.002;2023-08-17T07:27:18;17.00;99.90
15072;DHT22;7635;56.696;13.002;2023-08-17T07:29:44;17.10;99.90
15072;DHT22;7635;56.696;13.002;2023-08-17T07:32:11;17.10;99.90
15072;DHT22;7635;56.696;13.002;2023-08-17T07:34:38;17.20;99.90
15072;DHT22;7635;56.696;13.002;2023-08-17T07:37:05;17.20;99.90
15072;DHT22;7635;56.696;13.002;2023-08-17T07:39:33;17.30;99.90
15072;DHT22;7635;56.696;13.002;2023-08-17T07:42:00;17.40;99.90
15072;DHT22;7635;56.696;13.002;2023-08-17T07:44:26;17.50;99.90
15072;DHT22;7635;56.696;13.002;2023-08-17T07:46:56;17.50;99.90
15072;DHT22;7635;56.696;13.002;2023-08-17T07:49:24;17.60;99.90
15072;DHT22;7635;56.696;13.002;2023-08-17T07:51:51;17.70;99.90
15072;DHT22;7635;56.696;13.002;2023-08-17T07:54:18;17.70;99.90
15072;DHT22;7635;56.696;13.002;2023-08-17T07:56:46;17.70;99.90
15072;DHT22;7635;56.696;13.002;2023-08-17T07:59:12;17.70;99.90
15072;DHT22;7635;56.696;13.002;2023-08-17T08:01:39;17.70;99.90
15072;DHT22;7635;56.696;13.002;2023-08-17T08:04:06;17.80;99.90
15072;DHT22;7635;56.696;13.002;2023-08-17T08:06:33;17.80;99.90
15072;DHT22;7635;56.696;13.002;2023-08-17T08:08:59;17.80;99.90
15072;DHT22;7635;56.696;13.002;2023-08-17T08:11:26;17.80;99.90
15072;DHT22;7635;56.696;13.002;2023-08-17T08:13:57;17.90;99.90
15072;DHT22;7635;56.696;13.002;2023-08-17T08:16:24;17.90;99.90
15072;DHT22;7635;56.696;13.002;2023-08-17T08:18:50;18.00;99.90
15072;DHT22;7635;56.696;13.002;2023-08-17T08:21:17;18.00;99.90
15072;DHT22;7635;56.696;13.002;2023-08-17T08:23:44;18.10;99.90
15072;DHT22;7635;56.696;13.002;2023-08-17T08:26:10;18.10;99.90
15072;DHT22;7635;56.696;13.002;2023-08-17T08:28:37;18.20;99.90
15072;DHT22;7635;56.696;13.002;2023-08-17T08:31:05;18.20;99.90
15072;DHT22;7635;56.696;13.002;2023-08-17T08:33:32;18.30;99.90
15072;DHT22;7635;56.696;13.002;2023-08-17T08:35:59;18.40;99.90
15072;DHT22;7635;56.696;13.002;2023-08-17T08:38:24;18.50;99.90
15072;DHT22;7635;56.696;13.002;2023-08-17T08:40:51;18.50;99.90
15072;DHT22;7635;56.696;13.002;2023-08-17T08:43:18;18.60;99.90
15072;DHT22;7635;56.696;13.002;2023-08-17T08:45:46;18.60;99.90
15072;DHT22;7635;56.696;13.002;2023-08-17T08:48:18;18.60;99.90
15072;DHT22;7635;56.696;13.002;2023-08-17T08:50:46;18.60;99.90
15072;DHT22;7635;56.696;13.002;2023-08-17T08:53:14;18.60;99.90
15072;DHT22;7635;56.696;13.002;2023-08-17T08:55:45;18.70;99.90
15072;DHT22;7635;56.696;13.002;2023-08-17T08:58:13;18.70;99.90
15072;DHT22;7635;56.696;13.002;2023-08-17T09:00:42;18.80;99.90
15072;DHT22;7635;56.696;13.002;2023-08-17T09:03:09;18.80;99.90
15072;DHT22;7635;56.696;13.002;2023-08-17T09:05:38;18.90;99.90
15072;DHT22;7635;56.696;13.002;2023-08-17T09:08:08;19.00;99.90
15072;DHT22;7635;56.696;13.002;2023-08-17T09:10:35;19.10;99.90
15072;DHT22;7635;56.696;13.002;2023-08-17T09:13:02;19.20;99.90
15072;DHT22;7635;56.696;13.002;2023-08-17T09:15:28;19.30;99.90
15072;DHT22;7635;56.696;13.002;2023-08-17T09:17:55;19.40;99.90
15072;DHT22;7635;56.696;13.002;2023-08-17T09:20:41;19.60;99.90
15072;DHT22;7635;56.696;13.002;2023-08-17T09:23:11;19.80;99.90
15072;DHT22;7635;56.696;13.002;2023-08-17T09:25:40;20.00;99.90
15072;DHT22;7635;56.696;13.002;2023-08-17T09:28:08;20.20;99.90
15072;DHT22;7635;56.696;13.002;2023-08-17T09:30:49;20.50;99.90
15072;DHT22;7635;56.696;13.002;2023-08-17T09:33:17;20.70;99.90
15072;DHT22;7635;56.696;13.002;2023-08-17T09:35:45;20.90;99.90
15072;DHT22;7635;56.696;13.002;2023-08-17T09:38:12;21.10;99.90
15072;DHT22;7635;56.696;13.002;2023-08-17T09:40:39;21.40;99.90
15072;DHT22;7635;56.696;13.002;2023-08-17T09:43:06;21.80;99.90
15072;DHT22;7635;56.696;13.002;2023-08-17T09:45:32;22.00;99.90
15072;DHT22;7635;56.696;13.002;2023-08-17T09:47:59;22.30;99.90
15072;DHT22;7635;56.696;13.002;2023-08-17T09:50:26;22.40;99.90
15072;DHT22;7635;56.696;13.002;2023-08-17T09:52:54;22.50;99.90
15072;DHT22;7635;56.696;13.002;2023-08-17T09:55:22;22.50;99.90
15072;DHT22;7635;56.696;13.002;2023-08-17T09:57:48;22.40;99.90
15072;DHT22;7635;56.696;13.002;2023-08-17T10:00:16;22.30;99.90
15072;DHT22;7635;56.696;13.002;2023-08-17T10:02:44;22.20;99.90
15072;DHT22;7635;56.696;13.002;2023-08-17T10:05:11;22.20;99.90
15072;DHT22;7635;56.696;13.002;2023-08-17T10:07:42;22.20;99.90
15072;DHT22;7635;56.696;13.002;2023-08-17T10:10:11;22.30;99.90
15072;DHT22;7635;56.696;13.002;2023-08-17T10:12:48;22.50;99.90
15072;DHT22;7635;56.696;13.002;2023-08-17T10:15:15;22.80;99.90
15072;DHT22;7635;56.696;13.002;2023-08-17T10:17:54;23.00;99.90
15072;DHT22;7635;56.696;13.002;2023-08-17T10:20:23;23.20;99.90
15072;DHT22;7635;56.696;13.002;2023-08-17T10:22:54;23.30;99.90
15072;DHT22;7635;56.696;13.002;2023-08-17T10:25:26;23.30;99.90
15072;DHT22;7635;56.696;13.002;2023-08-17T10:27:54;23.30;99.90
15072;DHT22;7635;56.696;13.002;2023-08-17T10:30:21;23.30;99.90
15072;DHT22;7635;56.696;13.002;2023-08-17T10:32:48;23.20;99.90
15072;DHT22;7635;56.696;13.002;2023-08-17T10:35:15;23.20;99.90
15072;DHT22;7635;56.696;13.002;2023-08-17T10:37:42;23.10;99.90
15072;DHT22;7635;56.696;13.002;2023-08-17T10:40:11;23.10;99.90
15072;DHT22;7635;56.696;13.002;2023-08-17T10:42:39;23.10;99.90
15072;DHT22;7635;56.696;13.002;2023-08-17T10:45:34;23.10;99.90
15072;DHT22;7635;56.696;13.002;2023-08-17T10:48:27;23.20;99.90
15072;DHT22;7635;56.696;13.002;2023-08-17T10:51:02;23.20;99.90
15072;DHT22;7635;56.696;13.002;2023-08-17T10:53:35;23.40;99.90
15072;DHT22;7635;56.696;13.002;2023-08-17T10:56:06;23.80;99.90
15072;DHT22;7635;56.696;13.002;2023-08-17T10:58:35;24.20;99.90
15072;DHT22;7635;56.696;13.002;2023-08-17T11:01:02;24.60;99.90
15072;DHT22;7635;56.696;13.002;2023-08-17T11:03:29;24.60;99.90
15072;DHT22;7635;56.696;13.002;2023-08-17T11:05:56;24.40;99.90
15072;DHT22;7635;56.696;13.002;2023-08-17T11:08:27;24.10;99.90
15072;DHT22;7635;56.696;13.002;2023-08-17T11:11:03;23.90;99.90
15072;DHT22;7635;56.696;13.002;2023-08-17T11:13:31;23.60;99.90
15072;DHT22;7635;56.696;13.002;2023-08-17T11:16:00;23.40;99.90
15072;DHT22;7635;56.696;13.002;2023-08-17T11:18:27;23.30;99.90
15072;DHT22;7635;56.696;13.002;2023-08-17T11:20:54;23.10;99.90
15072;DHT22;7635;56.696;13.002;2023-08-17T11:23:22;23.10;99.90
15072;DHT22;7635;56.696;13.002;2023-08-17T11:25:51;23.10;99.90
15072;DHT22;7635;56.696;13.002;2023-08-17T11:28:18;23.20;99.90
15072;DHT22;7635;56.696;13.002;2023-08-17T11:30:45;23.50;99.90
15072;DHT22;7635;56.696;13.002;2023-08-17T11:33:13;23.70;99.90
15072;DHT22;7635;56.696;13.002;2023-08-17T11:35:40;23.90;99.90
15072;DHT22;7635;56.696;13.002;2023-08-17T11:38:07;24.10;99.90
15072;DHT22;7635;56.696;13.002;2023-08-17T11:40:34;24.10;99.90
15072;DHT22;7635;56.696;13.002;2023-08-17T11:43:01;24.10;99.90
15072;DHT22;7635;56.696;13.002;2023-08-17T11:45:27;24.10;99.90
15072;DHT22;7635;56.696;13.002;2023-08-17T11:47:55;24.00;99.90
15072;DHT22;7635;56.696;13.002;2023-08-17T11:50:24;23.90;99.90
15072;DHT22;7635;56.696;13.002;2023-08-17T11:52:52;23.90;99.90
15072;DHT22;7635;56.696;13.002;2023-08-17T11:55:18;23.80;99.90
15072;DHT22;7635;56.696;13.002;2023-08-17T11:57:46;23.80;99.90
15072;DHT22;7635;56.696;13.002;2023-08-17T12:00:18;23.80;99.90
15072;DHT22;7635;56.696;13.002;2023-08-17T12:02:47;24.00;99.90
15072;DHT22;7635;56.696;13.002;2023-08-17T12:05:19;24.20;99.90
15072;DHT22;7635;56.696;13.002;2023-08-17T12:07:47;24.30;99.90
15072;DHT22;7635;56.696;13.002;2023-08-17T12:10:14;24.40;99.90
15072;DHT22;7635;56.696;13.002;2023-08-17T12:12:41;24.60;99.90
15072;DHT22;7635;56.696;13.002;2023-08-17T12:15:10;24.80;99.90
15072;DHT22;7635;56.696;13.002;2023-08-17T12:17:44;24.80;99.90
15072;DHT22;7635;56.696;13.002;2023-08-17T12:20:16;24.80;99.90
15072;DHT22;7635;56.696;13.002;2023-08-17T12:22:43;24.90;99.90
15072;DHT22;7635;56.696;13.002;2023-08-17T12:25:11;25.00;99.90
15072;DHT22;7635;56.696;13.002;2023-08-17T12:27:37;25.00;99.90
15072;DHT22;7635;56.696;13.002;2023-08-17T12:30:05;24.90;99.90
15072;DHT22;7635;56.696;13.002;2023-08-17T12:32:37;24.90;99.90
15072;DHT22;7635;56.696;13.002;2023-08-17T12:35:05;25.00;99.90
15072;DHT22;7635;56.696;13.002;2023-08-17T12:37:31;25.10;99.90
15072;DHT22;7635;56.696;13.002;2023-08-17T12:39:58;25.20;99.90
15072;DHT22;7635;56.696;13.002;2023-08-17T12:42:26;25.20;99.90
15072;DHT22;7635;56.696;13.002;2023-08-17T12:44:53;25.20;99.90
15072;DHT22;7635;56.696;13.002;2023-08-17T12:47:19;25.00;99.90
15072;DHT22;7635;56.696;13.002;2023-08-17T12:49:46;25.00;99.90
15072;DHT22;7635;56.696;13.002;2023-08-17T12:52:13;25.00;99.90
15072;DHT22;7635;56.696;13.002;2023-08-17T12:54:39;24.90;99.90
15072;DHT22;7635;56.696;13.002;2023-08-17T12:57:06;24.90;99.90
15072;DHT22;7635;56.696;13.002;2023-08-17T12:59:34;24.90;99.90
15072;DHT22;7635;56.696;13.002;2023-08-17T13:02:01;24.90;99.90
15072;DHT22;7635;56.696;13.002;2023-08-17T13:04:27;24.90;99.90
15072;DHT22;7635;56.696;13.002;2023-08-17T13:06:54;24.90;99.90
15072;DHT22;7635;56.696;13.002;2023-08-17T13:09:21;25.00;99.90
15072;DHT22;7635;56.696;13.002;2023-08-17T13:11:47;24.90;99.90
15072;DHT22;7635;56.696;13.002;2023-08-17T13:14:14;25.00;99.90
15072;DHT22;7635;56.696;13.002;2023-08-17T13:16:43;25.00;99.90
15072;DHT22;7635;56.696;13.002;2023-08-17T13:19:09;24.90;99.90
15072;DHT22;7635;56.696;13.002;2023-08-17T13:21:36;24.70;99.90
15072;DHT22;7635;56.696;13.002;2023-08-17T13:24:03;24.60;99.90
15072;DHT22;7635;56.696;13.002;2023-08-17T13:26:30;24.40;99.90
15072;DHT22;7635;56.696;13.002;2023-08-17T13:28:57;24.30;99.90
15072;DHT22;7635;56.696;13.002;2023-08-17T13:31:23;24.30;99.90
15072;DHT22;7635;56.696;13.002;2023-08-17T13:33:51;24.40;99.90
15072;DHT22;7635;56.696;13.002;2023-08-17T13:36:18;24.50;99.90
15072;DHT22;7635;56.696;13.002;2023-08-17T13:38:45;24.60;99.90
15072;DHT22;7635;56.696;13.002;2023-08-17T13:41:12;24.70;99.90
15072;DHT22;7635;56.696;13.002;2023-08-17T13:43:39;24.70;99.90
15072;DHT22;7635;56.696;13.002;2023-08-17T13:46:06;24.60;99.90
15072;DHT22;7635;56.696;13.002;2023-08-17T13:48:33;24.50;99.90
15072;DHT22;7635;56.696;13.002;2023-08-17T13:51:01;24.50;99.90
15072;DHT22;7635;56.696;13.002;2023-08-17T13:53:28;24.50;99.90
15072;DHT22;7635;56.696;13.002;2023-08-17T13:55:54;24.50;99.90
15072;DHT22;7635;56.696;13.002;2023-08-17T13:58:21;24.50;99.90
15072;DHT22;7635;56.696;13.002;2023-08-17T14:00:48;24.50;99.90
15072;DHT22;7635;56.696;13.002;2023-08-17T14:03:14;24.40;99.90
15072;DHT22;7635;56.696;13.002;2023-08-17T14:05:41;24.30;99.90
15072;DHT22;7635;56.696;13.002;2023-08-17T14:08:11;24.30;99.90
15072;DHT22;7635;56.696;13.002;2023-08-17T14:10:38;24.20;99.90
15072;DHT22;7635;56.696;13.002;2023-08-17T14:13:04;24.20;99.90
15072;DHT22;7635;56.696;13.002;2023-08-17T14:15:31;24.20;99.90
15072;DHT22;7635;56.696;13.002;2023-08-17T14:17:58;24.20;99.90
15072;DHT22;7635;56.696;13.002;2023-08-17T14:20:24;24.20;99.90
15072;DHT22;7635;56.696;13.002;2023-08-17T14:22:52;24.10;99.90
15072;DHT22;7635;56.696;13.002;2023-08-17T14:25:20;24.00;99.90
15072;DHT22;7635;56.696;13.002;2023-08-17T14:27:47;24.00;99.90
15072;DHT22;7635;56.696;13.002;2023-08-17T14:30:14;23.90;99.90
15072;DHT22;7635;56.696;13.002;2023-08-17T14:32:40;23.80;99.90
15072;DHT22;7635;56.696;13.002;2023-08-17T14:35:07;23.80;99.90
15072;DHT22;7635;56.696;13.002;2023-08-17T14:37:34;23.80;99.90
15072;DHT22;7635;56.696;13.002;2023-08-17T14:40:01;23.90;99.90
15072;DHT22;7635;56.696;13.002;2023-08-17T14:42:29;23.80;99.90
15072;DHT22;7635;56.696;13.002;2023-08-17T14:44:56;23.80;99.90
15072;DHT22;7635;56.696;13.002;2023-08-17T14:47:23;23.70;99.90
15072;DHT22;7635;56.696;13.002;2023-08-17T14:49:49;23.70;99.90
15072;DHT22;7635;56.696;13.002;2023-08-17T14:52:16;23.70;99.90
15072;DHT22;7635;56.696;13.002;2023-08-17T14:54:43;23.70;99.90
15072;DHT22;7635;56.696;13.002;2023-08-17T14:57:09;23.70;99.90
15072;DHT22;7635;56.696;13.002;2023-08-17T14:59:37;23.60;99.90
15072;DHT22;7635;56.696;13.002;2023-08-17T15:02:04;23.60;99.90
15072;DHT22;7635;56.696;13.002;2023-08-17T15:04:31;23.60;99.90
15072;DHT22;7635;56.696;13.002;2023-08-17T15:06:58;23.60;99.90
15072;DHT22;7635;56.696;13.002;2023-08-17T15:09:25;23.60;99.90
15072;DHT22;7635;56.696;13.002;2023-08-17T15:11:52;23.60;99.90
15072;DHT22;7635;56.696;13.002;2023-08-17T15:14:18;23.60;99.90
15072;DHT22;7635;56.696;13.002;2023-08-17T15:16:46;23.60;99.90
15072;DHT22;7635;56.696;13.002;2023-08-17T15:19:13;23.60;99.90
15072;DHT22;7635;56.696;13.002;2023-08-17T15:21:40;23.50;99.90
15072;DHT22;7635;56.696;13.002;2023-08-17T15:24:06;23.50;99.90
15072;DHT22;7635;56.696;13.002;2023-08-17T15:26:33;23.40;99.90
15072;DHT22;7635;56.696;13.002;2023-08-17T15:29:00;23.40;99.90
15072;DHT22;7635;56.696;13.002;2023-08-17T15:31:26;23.40;99.90
15072;DHT22;7635;56.696;13.002;2023-08-17T15:33:54;23.40;99.90